• Join FlightAware (Why Join?)
  • Login
  • US Flag 
01:53PM EDT


 

Airport Tracker/Info


-or-


 

Live Flight TrackerFlight Track Log ✈ EJA122 ✈ 09-Jun-2013 ✈ KPGA - KRIL

Flight Track Log - Related Links

Times and Time Zones

All times are in EDT time to prevent confusion due to time zone crossing. See the EJA122 flight status page for this flight to view local times or setup timezone preferences in your user account.

Time Position Orientation Groundspeed Altitude Reporting Facility
EDT Latitude Longitude Course Direction KTS MPH feet Rate Location/Type
06:10PM 37.0411 -111.4031 47° Northeast 251 289 8,300  Level Salt Lake Center
06:12PM 37.1067 -111.3719 21° North 251 289 10,100 1,920 Climbing Salt Lake Center
06:13PM 37.1942 -111.3278 22° Northeast 264 304 12,300 1,980 Climbing Salt Lake Center
06:14PM 37.2731 -111.2886 22° Northeast 279 321 14,200 1,800 Climbing Salt Lake Center
06:15PM 37.3547 -111.2458 23° Northeast 295 339 16,000 1,680 Climbing Salt Lake Center
06:16PM 37.3201 -110.9117 47° Northeast  Level Estimated
06:16PM 37.4131 -111.1578 50° Northeast 321 369 17,700  Level Salt Lake Center
06:17PM 37.4711 -111.0653 52° Northeast 333 383 19,700 1,680 Climbing Salt Lake Center
06:18PM 37.5322 -110.9733 50° Northeast 340 391 21,200 1,380 Climbing Salt Lake Center
06:19PM 37.5947 -110.8767 51° Northeast 351 404 22,600 840 Climbing Salt Lake Center
06:20PM 37.6742 -110.7503 52° Northeast 380 437 23,000 180 Climbing Denver Center
06:21PM 37.7481 -110.6342 51° Northeast 417 480 23,000  Level Denver Center
06:22PM 37.8328 -110.5003 51° Northeast 436 502 23,000  Level Denver Center
06:23PM 37.9094 -110.3839 50° Northeast 444 511 23,000  Level Denver Center
06:24PM 37.9850 -110.2653 51° Northeast 450 518 23,000  Level Denver Center
06:25PM 38.0689 -110.1314 51° Northeast 450 518 23,000  Level Denver Center
06:26PM 38.1567 -109.9925 51° Northeast 451 519 23,000  Level Denver Center
06:27PM 38.2322 -109.8719 51° Northeast 455 524 23,000  Level Denver Center
06:28PM 38.3197 -109.7322 51° Northeast 453 521 23,000  Level Denver Center
06:29PM 38.3939 -109.6089 52° Northeast 456 525 23,000  Level Denver Center
06:30PM 38.4689 -109.4869 52° Northeast 456 525 23,000  Level Denver Center
06:31PM 38.5561 -109.3467 51° Northeast 454 522 23,000  Level Denver Center
06:32PM 38.6378 -109.2150 52° Northeast 455 524 23,000 -180 Level Denver Center
06:33PM 38.7211 -109.0778 52° Northeast 455 524 22,700 -960 Descending Denver Center
06:34PM 38.7972 -108.9514 52° Northeast 450 518 21,100 -1,620 Descending Denver Center
06:35PM 38.8758 -108.8231 52° Northeast 426 490 19,400 -1,560 Descending Denver Center
06:36PM 38.9486 -108.7028 52° Northeast 427 491 17,900 -1,500 Descending Denver Center
06:37PM 39.0208 -108.5825 52° Northeast 425 489 16,400 -1,500 Descending Denver Center
06:38PM 39.0975 -108.4572 52° Northeast 407 468 14,800 -1,200 Descending Denver Center
06:39PM 39.1625 -108.3478 53° Northeast 384 442 14,000 -420 Descending Denver Center
06:40PM 39.2208 -108.2497 52° Northeast 347 399 14,000  Level Denver Center